sensor_id;sensor_type;location;lat;lon;timestamp;P1;durP1;ratioP1;P2;durP2;ratioP2
34900;SDS011;21112;51.976;5.660;2022-10-16T00:00:34;5.80;;;2.00;;
34900;SDS011;21112;51.976;5.660;2022-10-16T00:03:02;7.88;;;3.22;;
34900;SDS011;21112;51.976;5.660;2022-10-16T00:05:28;8.30;;;2.75;;
34900;SDS011;21112;51.976;5.660;2022-10-16T00:07:55;7.15;;;2.28;;
34900;SDS011;21112;51.976;5.660;2022-10-16T00:10:22;7.20;;;2.60;;
34900;SDS011;21112;51.976;5.660;2022-10-16T00:12:52;8.07;;;2.22;;
34900;SDS011;21112;51.976;5.660;2022-10-16T00:15:19;5.70;;;1.95;;
34900;SDS011;21112;51.976;5.660;2022-10-16T00:17:46;6.38;;;2.38;;
34900;SDS011;21112;51.976;5.660;2022-10-16T00:20:13;6.35;;;2.00;;
34900;SDS011;21112;51.976;5.660;2022-10-16T00:22:40;9.65;;;2.00;;
34900;SDS011;21112;51.976;5.660;2022-10-16T00:25:06;8.10;;;2.00;;
34900;SDS011;21112;51.976;5.660;2022-10-16T00:27:34;8.38;;;1.65;;
34900;SDS011;21112;51.976;5.660;2022-10-16T00:30:02;4.75;;;1.92;;
34900;SDS011;21112;51.976;5.660;2022-10-16T00:32:29;3.33;;;1.63;;
34900;SDS011;21112;51.976;5.660;2022-10-16T00:34:56;3.95;;;1.63;;
34900;SDS011;21112;51.976;5.660;2022-10-16T00:37:23;5.65;;;1.67;;
34900;SDS011;21112;51.976;5.660;2022-10-16T00:39:50;4.30;;;1.77;;
34900;SDS011;21112;51.976;5.660;2022-10-16T00:42:17;3.72;;;1.40;;
34900;SDS011;21112;51.976;5.660;2022-10-16T00:44:45;5.32;;;1.92;;
34900;SDS011;21112;51.976;5.660;2022-10-16T00:47:15;7.43;;;2.50;;
34900;SDS011;21112;51.976;5.660;2022-10-16T00:49:43;6.15;;;2.75;;
34900;SDS011;21112;51.976;5.660;2022-10-16T00:52:10;5.07;;;2.10;;
34900;SDS011;21112;51.976;5.660;2022-10-16T00:54:38;7.05;;;2.10;;
34900;SDS011;21112;51.976;5.660;2022-10-16T00:57:05;4.00;;;1.88;;
34900;SDS011;21112;51.976;5.660;2022-10-16T00:59:33;6.05;;;1.80;;
34900;SDS011;21112;51.976;5.660;2022-10-16T01:02:00;3.80;;;1.75;;
34900;SDS011;21112;51.976;5.660;2022-10-16T01:04:29;5.75;;;1.98;;
34900;SDS011;21112;51.976;5.660;2022-10-16T01:06:59;3.95;;;1.70;;
34900;SDS011;21112;51.976;5.660;2022-10-16T01:09:31;4.13;;;1.58;;
34900;SDS011;21112;51.976;5.660;2022-10-16T01:12:03;4.85;;;1.73;;
34900;SDS011;21112;51.976;5.660;2022-10-16T01:14:35;5.30;;;1.80;;
34900;SDS011;21112;51.976;5.660;2022-10-16T01:17:04;9.02;;;2.03;;
34900;SDS011;21112;51.976;5.660;2022-10-16T01:19:48;3.78;;;1.65;;
34900;SDS011;21112;51.976;5.660;2022-10-16T01:22:16;4.78;;;2.00;;
34900;SDS011;21112;51.976;5.660;2022-10-16T01:24:44;4.75;;;1.77;;
34900;SDS011;21112;51.976;5.660;2022-10-16T01:27:13;6.45;;;1.80;;
34900;SDS011;21112;51.976;5.660;2022-10-16T01:29:44;7.78;;;1.70;;
34900;SDS011;21112;51.976;5.660;2022-10-16T01:32:15;3.50;;;1.75;;
34900;SDS011;21112;51.976;5.660;2022-10-16T01:34:45;5.07;;;1.60;;
34900;SDS011;21112;51.976;5.660;2022-10-16T01:37:14;3.35;;;1.63;;
34900;SDS011;21112;51.976;5.660;2022-10-16T01:42:09;7.38;;;1.95;;
34900;SDS011;21112;51.976;5.660;2022-10-16T01:44:40;4.15;;;1.50;;
34900;SDS011;21112;51.976;5.660;2022-10-16T01:47:07;4.63;;;1.40;;
34900;SDS011;21112;51.976;5.660;2022-10-16T01:49:36;5.45;;;1.70;;
34900;SDS011;21112;51.976;5.660;2022-10-16T01:52:06;3.03;;;1.50;;
34900;SDS011;21112;51.976;5.660;2022-10-16T01:54:34;4.10;;;1.63;;
34900;SDS011;21112;51.976;5.660;2022-10-16T01:57:01;5.70;;;1.42;;
34900;SDS011;21112;51.976;5.660;2022-10-16T01:59:29;4.30;;;1.52;;
34900;SDS011;21112;51.976;5.660;2022-10-16T02:01:59;4.05;;;1.80;;
34900;SDS011;21112;51.976;5.660;2022-10-16T02:04:29;4.97;;;1.38;;
34900;SDS011;21112;51.976;5.660;2022-10-16T02:06:56;2.60;;;1.30;;
34900;SDS011;21112;51.976;5.660;2022-10-16T02:09:23;5.53;;;1.35;;
34900;SDS011;21112;51.976;5.660;2022-10-16T02:11:49;2.85;;;1.25;;
34900;SDS011;21112;51.976;5.660;2022-10-16T02:14:17;4.38;;;1.40;;
34900;SDS011;21112;51.976;5.660;2022-10-16T02:16:45;4.00;;;1.50;;
34900;SDS011;21112;51.976;5.660;2022-10-16T02:19:13;5.57;;;1.40;;
34900;SDS011;21112;51.976;5.660;2022-10-16T02:21:42;4.07;;;1.50;;
34900;SDS011;21112;51.976;5.660;2022-10-16T02:24:11;4.00;;;1.08;;
34900;SDS011;21112;51.976;5.660;2022-10-16T02:26:42;3.58;;;1.40;;
34900;SDS011;21112;51.976;5.660;2022-10-16T02:29:10;8.80;;;1.38;;
34900;SDS011;21112;51.976;5.660;2022-10-16T02:31:41;3.97;;;1.35;;
34900;SDS011;21112;51.976;5.660;2022-10-16T02:34:10;4.32;;;1.70;;
34900;SDS011;21112;51.976;5.660;2022-10-16T02:36:38;4.18;;;1.30;;
34900;SDS011;21112;51.976;5.660;2022-10-16T02:39:05;4.55;;;1.20;;
34900;SDS011;21112;51.976;5.660;2022-10-16T02:41:33;7.78;;;1.52;;
34900;SDS011;21112;51.976;5.660;2022-10-16T02:43:59;3.97;;;1.25;;
34900;SDS011;21112;51.976;5.660;2022-10-16T02:46:26;2.63;;;1.30;;
34900;SDS011;21112;51.976;5.660;2022-10-16T02:48:52;2.92;;;1.50;;
34900;SDS011;21112;51.976;5.660;2022-10-16T02:53:48;1.75;;;1.02;;
34900;SDS011;21112;51.976;5.660;2022-10-16T02:56:15;2.97;;;1.45;;
34900;SDS011;21112;51.976;5.660;2022-10-16T02:58:42;7.90;;;1.45;;
34900;SDS011;21112;51.976;5.660;2022-10-16T03:01:09;5.80;;;1.30;;
34900;SDS011;21112;51.976;5.660;2022-10-16T03:06:04;2.60;;;1.20;;
34900;SDS011;21112;51.976;5.660;2022-10-16T03:08:31;3.03;;;1.52;;
34900;SDS011;21112;51.976;5.660;2022-10-16T03:10:59;3.78;;;1.60;;
34900;SDS011;21112;51.976;5.660;2022-10-16T03:13:26;3.55;;;1.30;;
34900;SDS011;21112;51.976;5.660;2022-10-16T03:15:52;9.65;;;1.45;;
34900;SDS011;21112;51.976;5.660;2022-10-16T03:18:19;5.70;;;1.20;;
34900;SDS011;21112;51.976;5.660;2022-10-16T03:20:45;3.00;;;1.30;;
34900;SDS011;21112;51.976;5.660;2022-10-16T03:23:12;3.00;;;1.20;;
34900;SDS011;21112;51.976;5.660;2022-10-16T03:25:39;2.38;;;1.25;;
34900;SDS011;21112;51.976;5.660;2022-10-16T03:28:07;2.60;;;1.17;;
34900;SDS011;21112;51.976;5.660;2022-10-16T03:30:34;3.20;;;1.23;;
34900;SDS011;21112;51.976;5.660;2022-10-16T03:33:01;1.92;;;1.10;;
34900;SDS011;21112;51.976;5.660;2022-10-16T03:35:27;8.98;;;2.05;;
34900;SDS011;21112;51.976;5.660;2022-10-16T03:37:55;1.48;;;0.85;;
34900;SDS011;21112;51.976;5.660;2022-10-16T03:40:22;2.65;;;1.08;;
34900;SDS011;21112;51.976;5.660;2022-10-16T03:42:49;2.60;;;1.00;;
34900;SDS011;21112;51.976;5.660;2022-10-16T03:45:17;2.67;;;1.23;;
34900;SDS011;21112;51.976;5.660;2022-10-16T03:47:44;2.90;;;1.33;;
34900;SDS011;21112;51.976;5.660;2022-10-16T03:50:10;3.17;;;1.02;;
34900;SDS011;21112;51.976;5.660;2022-10-16T03:52:37;1.60;;;1.00;;
34900;SDS011;21112;51.976;5.660;2022-10-16T03:55:04;3.35;;;1.20;;
34900;SDS011;21112;51.976;5.660;2022-10-16T03:57:32;3.83;;;1.10;;
34900;SDS011;21112;51.976;5.660;2022-10-16T03:59:59;2.03;;;0.95;;
34900;SDS011;21112;51.976;5.660;2022-10-16T04:02:27;2.50;;;1.20;;
34900;SDS011;21112;51.976;5.660;2022-10-16T04:04:53;7.00;;;1.00;;
34900;SDS011;21112;51.976;5.660;2022-10-16T04:07:20;3.20;;;1.38;;
34900;SDS011;21112;51.976;5.660;2022-10-16T04:09:46;2.80;;;1.00;;
34900;SDS011;21112;51.976;5.660;2022-10-16T04:12:13;2.75;;;1.17;;
34900;SDS011;21112;51.976;5.660;2022-10-16T04:14:40;2.00;;;1.20;;
34900;SDS011;21112;51.976;5.660;2022-10-16T04:17:06;1.63;;;0.90;;
34900;SDS011;21112;51.976;5.660;2022-10-16T04:19:34;1.42;;;0.93;;
34900;SDS011;21112;51.976;5.660;2022-10-16T04:22:01;1.80;;;1.13;;
34900;SDS011;21112;51.976;5.660;2022-10-16T04:24:28;5.28;;;1.08;;
34900;SDS011;21112;51.976;5.660;2022-10-16T04:26:54;1.55;;;0.98;;
34900;SDS011;21112;51.976;5.660;2022-10-16T04:29:21;1.65;;;0.98;;
34900;SDS011;21112;51.976;5.660;2022-10-16T04:31:48;2.08;;;1.20;;
34900;SDS011;21112;51.976;5.660;2022-10-16T04:34:15;3.72;;;1.00;;
34900;SDS011;21112;51.976;5.660;2022-10-16T04:36:43;3.65;;;0.90;;
34900;SDS011;21112;51.976;5.660;2022-10-16T04:39:10;2.47;;;1.15;;
34900;SDS011;21112;51.976;5.660;2022-10-16T04:41:38;3.25;;;1.23;;
34900;SDS011;21112;51.976;5.660;2022-10-16T04:44:04;1.98;;;0.80;;
34900;SDS011;21112;51.976;5.660;2022-10-16T04:46:31;3.35;;;1.20;;
34900;SDS011;21112;51.976;5.660;2022-10-16T04:48:57;1.27;;;0.70;;
34900;SDS011;21112;51.976;5.660;2022-10-16T04:51:24;2.65;;;1.15;;
34900;SDS011;21112;51.976;5.660;2022-10-16T04:53:54;4.85;;;1.02;;
34900;SDS011;21112;51.976;5.660;2022-10-16T04:56:20;1.95;;;1.00;;
34900;SDS011;21112;51.976;5.660;2022-10-16T04:58:48;2.08;;;1.00;;
34900;SDS011;21112;51.976;5.660;2022-10-16T05:01:14;3.50;;;1.00;;
34900;SDS011;21112;51.976;5.660;2022-10-16T05:03:41;1.80;;;0.80;;
34900;SDS011;21112;51.976;5.660;2022-10-16T05:06:07;1.65;;;0.82;;
34900;SDS011;21112;51.976;5.660;2022-10-16T05:08:35;5.15;;;1.10;;
34900;SDS011;21112;51.976;5.660;2022-10-16T05:11:04;3.03;;;1.17;;
34900;SDS011;21112;51.976;5.660;2022-10-16T05:13:31;4.13;;;1.50;;
34900;SDS011;21112;51.976;5.660;2022-10-16T05:15:57;1.95;;;0.90;;
34900;SDS011;21112;51.976;5.660;2022-10-16T05:18:24;2.17;;;1.00;;
34900;SDS011;21112;51.976;5.660;2022-10-16T05:20:51;1.67;;;0.90;;
34900;SDS011;21112;51.976;5.660;2022-10-16T05:23:18;2.10;;;1.10;;
34900;SDS011;21112;51.976;5.660;2022-10-16T05:25:51;1.05;;;0.70;;
34900;SDS011;21112;51.976;5.660;2022-10-16T05:28:20;3.42;;;1.00;;
34900;SDS011;21112;51.976;5.660;2022-10-16T05:30:46;2.80;;;1.05;;
34900;SDS011;21112;51.976;5.660;2022-10-16T05:33:13;2.15;;;0.80;;
34900;SDS011;21112;51.976;5.660;2022-10-16T05:35:39;1.90;;;0.98;;
34900;SDS011;21112;51.976;5.660;2022-10-16T05:38:06;2.75;;;1.00;;
34900;SDS011;21112;51.976;5.660;2022-10-16T05:40:33;3.92;;;1.13;;
34900;SDS011;21112;51.976;5.660;2022-10-16T05:43:00;3.15;;;1.20;;
34900;SDS011;21112;51.976;5.660;2022-10-16T05:45:28;1.98;;;1.08;;
34900;SDS011;21112;51.976;5.660;2022-10-16T05:47:54;7.60;;;1.10;;
34900;SDS011;21112;51.976;5.660;2022-10-16T05:50:21;1.88;;;0.90;;
34900;SDS011;21112;51.976;5.660;2022-10-16T05:52:48;2.75;;;1.00;;
34900;SDS011;21112;51.976;5.660;2022-10-16T05:55:15;2.92;;;1.00;;
34900;SDS011;21112;51.976;5.660;2022-10-16T05:57:42;2.67;;;0.90;;
34900;SDS011;21112;51.976;5.660;2022-10-16T06:00:09;4.63;;;1.05;;
34900;SDS011;21112;51.976;5.660;2022-10-16T06:02:38;1.47;;;0.87;;
34900;SDS011;21112;51.976;5.660;2022-10-16T06:05:05;1.63;;;0.98;;
34900;SDS011;21112;51.976;5.660;2022-10-16T06:07:33;2.00;;;0.93;;
34900;SDS011;21112;51.976;5.660;2022-10-16T06:10:00;2.70;;;1.20;;
34900;SDS011;21112;51.976;5.660;2022-10-16T06:12:26;3.58;;;1.00;;
34900;SDS011;21112;51.976;5.660;2022-10-16T06:14:53;3.58;;;0.90;;
34900;SDS011;21112;51.976;5.660;2022-10-16T06:17:20;2.13;;;1.20;;
34900;SDS011;21112;51.976;5.660;2022-10-16T06:19:48;3.10;;;0.95;;
34900;SDS011;21112;51.976;5.660;2022-10-16T06:22:15;2.47;;;1.00;;
34900;SDS011;21112;51.976;5.660;2022-10-16T06:24:41;2.63;;;1.13;;
34900;SDS011;21112;51.976;5.660;2022-10-16T06:27:08;2.25;;;1.10;;
34900;SDS011;21112;51.976;5.660;2022-10-16T06:29:34;1.88;;;1.05;;
34900;SDS011;21112;51.976;5.660;2022-10-16T06:32:01;1.63;;;1.02;;
34900;SDS011;21112;51.976;5.660;2022-10-16T06:34:28;3.67;;;1.00;;
34900;SDS011;21112;51.976;5.660;2022-10-16T06:36:56;1.55;;;0.90;;
34900;SDS011;21112;51.976;5.660;2022-10-16T06:39:23;1.60;;;0.93;;
34900;SDS011;21112;51.976;5.660;2022-10-16T06:41:49;4.10;;;1.30;;
34900;SDS011;21112;51.976;5.660;2022-10-16T06:44:16;1.73;;;1.20;;
34900;SDS011;21112;51.976;5.660;2022-10-16T06:46:42;1.60;;;0.95;;
34900;SDS011;21112;51.976;5.660;2022-10-16T06:49:09;2.60;;;1.30;;
34900;SDS011;21112;51.976;5.660;2022-10-16T06:51:36;2.28;;;1.10;;
34900;SDS011;21112;51.976;5.660;2022-10-16T06:54:07;2.38;;;1.13;;
34900;SDS011;21112;51.976;5.660;2022-10-16T06:56:34;2.00;;;1.17;;
34900;SDS011;21112;51.976;5.660;2022-10-16T06:59:01;2.20;;;1.20;;
34900;SDS011;21112;51.976;5.660;2022-10-16T07:01:28;2.72;;;1.15;;
34900;SDS011;21112;51.976;5.660;2022-10-16T07:03:55;1.70;;;0.88;;
34900;SDS011;21112;51.976;5.660;2022-10-16T07:06:22;3.25;;;1.38;;
34900;SDS011;21112;51.976;5.660;2022-10-16T07:08:51;3.87;;;1.80;;
34900;SDS011;21112;51.976;5.660;2022-10-16T07:11:20;7.78;;;2.38;;
34900;SDS011;21112;51.976;5.660;2022-10-16T07:13:47;3.85;;;1.08;;
34900;SDS011;21112;51.976;5.660;2022-10-16T07:16:15;2.78;;;1.15;;
34900;SDS011;21112;51.976;5.660;2022-10-16T07:18:44;6.15;;;0.95;;
34900;SDS011;21112;51.976;5.660;2022-10-16T07:21:12;1.20;;;0.90;;
34900;SDS011;21112;51.976;5.660;2022-10-16T07:23:39;2.20;;;1.00;;
34900;SDS011;21112;51.976;5.660;2022-10-16T07:26:06;1.52;;;1.00;;
34900;SDS011;21112;51.976;5.660;2022-10-16T07:28:34;4.60;;;0.90;;
34900;SDS011;21112;51.976;5.660;2022-10-16T07:31:01;3.15;;;1.20;;
34900;SDS011;21112;51.976;5.660;2022-10-16T07:33:28;2.20;;;1.27;;
34900;SDS011;21112;51.976;5.660;2022-10-16T07:35:55;3.63;;;1.30;;
34900;SDS011;21112;51.976;5.660;2022-10-16T07:38:21;1.70;;;0.95;;
34900;SDS011;21112;51.976;5.660;2022-10-16T07:40:55;2.17;;;1.10;;
34900;SDS011;21112;51.976;5.660;2022-10-16T07:43:21;2.53;;;1.23;;
34900;SDS011;21112;51.976;5.660;2022-10-16T07:45:50;2.33;;;1.10;;
34900;SDS011;21112;51.976;5.660;2022-10-16T07:48:17;2.10;;;1.05;;
34900;SDS011;21112;51.976;5.660;2022-10-16T07:50:45;3.25;;;1.55;;
34900;SDS011;21112;51.976;5.660;2022-10-16T07:53:12;5.97;;;2.45;;
34900;SDS011;21112;51.976;5.660;2022-10-16T07:55:38;3.50;;;1.60;;
34900;SDS011;21112;51.976;5.660;2022-10-16T07:58:05;2.08;;;1.05;;
34900;SDS011;21112;51.976;5.660;2022-10-16T08:00:32;3.17;;;1.40;;
34900;SDS011;21112;51.976;5.660;2022-10-16T08:03:00;4.18;;;1.50;;
34900;SDS011;21112;51.976;5.660;2022-10-16T08:05:27;4.32;;;1.35;;
34900;SDS011;21112;51.976;5.660;2022-10-16T08:07:54;3.38;;;1.40;;
34900;SDS011;21112;51.976;5.660;2022-10-16T08:10:22;4.20;;;1.17;;
34900;SDS011;21112;51.976;5.660;2022-10-16T08:12:49;4.05;;;1.45;;
34900;SDS011;21112;51.976;5.660;2022-10-16T08:15:16;2.72;;;1.40;;
34900;SDS011;21112;51.976;5.660;2022-10-16T08:17:42;3.67;;;1.13;;
34900;SDS011;21112;51.976;5.660;2022-10-16T08:20:11;6.03;;;1.60;;
34900;SDS011;21112;51.976;5.660;2022-10-16T08:22:37;3.17;;;1.75;;
34900;SDS011;21112;51.976;5.660;2022-10-16T08:25:05;5.63;;;2.35;;
34900;SDS011;21112;51.976;5.660;2022-10-16T08:27:32;4.38;;;1.90;;
34900;SDS011;21112;51.976;5.660;2022-10-16T08:29:59;8.48;;;1.25;;
34900;SDS011;21112;51.976;5.660;2022-10-16T08:32:26;3.35;;;1.52;;
34900;SDS011;21112;51.976;5.660;2022-10-16T08:34:53;2.80;;;1.35;;
34900;SDS011;21112;51.976;5.660;2022-10-16T08:37:21;2.85;;;1.10;;
34900;SDS011;21112;51.976;5.660;2022-10-16T08:39:47;3.30;;;1.50;;
34900;SDS011;21112;51.976;5.660;2022-10-16T08:42:16;7.20;;;2.58;;
34900;SDS011;21112;51.976;5.660;2022-10-16T08:47:35;5.57;;;1.30;;
34900;SDS011;21112;51.976;5.660;2022-10-16T08:50:08;3.00;;;1.30;;
34900;SDS011;21112;51.976;5.660;2022-10-16T08:52:38;12.68;;;1.60;;
34900;SDS011;21112;51.976;5.660;2022-10-16T08:55:05;5.53;;;1.50;;
34900;SDS011;21112;51.976;5.660;2022-10-16T08:57:33;3.72;;;1.45;;
34900;SDS011;21112;51.976;5.660;2022-10-16T09:00:04;3.92;;;1.25;;
34900;SDS011;21112;51.976;5.660;2022-10-16T09:02:32;5.65;;;1.15;;
34900;SDS011;21112;51.976;5.660;2022-10-16T09:05:03;2.45;;;1.15;;
34900;SDS011;21112;51.976;5.660;2022-10-16T09:07:41;6.97;;;1.23;;
34900;SDS011;21112;51.976;5.660;2022-10-16T09:10:15;4.13;;;1.33;;
34900;SDS011;21112;51.976;5.660;2022-10-16T09:12:48;4.07;;;1.05;;
34900;SDS011;21112;51.976;5.660;2022-10-16T09:15:21;3.60;;;1.38;;
34900;SDS011;21112;51.976;5.660;2022-10-16T09:17:53;6.53;;;1.60;;
34900;SDS011;21112;51.976;5.660;2022-10-16T09:20:25;3.75;;;1.45;;
34900;SDS011;21112;51.976;5.660;2022-10-16T09:22:56;5.47;;;1.42;;
34900;SDS011;21112;51.976;5.660;2022-10-16T09:25:26;3.50;;;1.17;;
34900;SDS011;21112;51.976;5.660;2022-10-16T09:27:55;5.38;;;1.27;;
34900;SDS011;21112;51.976;5.660;2022-10-16T09:30:22;6.57;;;1.10;;
34900;SDS011;21112;51.976;5.660;2022-10-16T09:32:50;8.60;;;1.30;;
34900;SDS011;21112;51.976;5.660;2022-10-16T09:37:47;3.50;;;1.15;;
34900;SDS011;21112;51.976;5.660;2022-10-16T09:40:24;6.05;;;1.00;;
34900;SDS011;21112;51.976;5.660;2022-10-16T09:42:52;3.70;;;1.15;;
34900;SDS011;21112;51.976;5.660;2022-10-16T09:45:21;6.38;;;1.23;;
34900;SDS011;21112;51.976;5.660;2022-10-16T09:50:21;7.28;;;1.25;;
34900;SDS011;21112;51.976;5.660;2022-10-16T09:52:49;7.18;;;1.70;;
34900;SDS011;21112;51.976;5.660;2022-10-16T09:55:16;12.35;;;3.28;;
34900;SDS011;21112;51.976;5.660;2022-10-16T09:57:54;5.73;;;1.57;;
34900;SDS011;21112;51.976;5.660;2022-10-16T10:00:21;2.83;;;1.10;;
34900;SDS011;21112;51.976;5.660;2022-10-16T10:02:48;8.82;;;1.45;;
34900;SDS011;21112;51.976;5.660;2022-10-16T10:05:18;5.90;;;1.20;;
34900;SDS011;21112;51.976;5.660;2022-10-16T10:07:46;4.28;;;0.98;;
34900;SDS011;21112;51.976;5.660;2022-10-16T10:10:20;6.22;;;1.33;;
34900;SDS011;21112;51.976;5.660;2022-10-16T10:12:47;5.07;;;1.20;;
34900;SDS011;21112;51.976;5.660;2022-10-16T10:15:15;8.10;;;1.60;;
34900;SDS011;21112;51.976;5.660;2022-10-16T10:17:47;8.38;;;1.20;;
34900;SDS011;21112;51.976;5.660;2022-10-16T10:20:18;10.18;;;2.13;;
34900;SDS011;21112;51.976;5.660;2022-10-16T10:22:47;6.43;;;1.38;;
34900;SDS011;21112;51.976;5.660;2022-10-16T10:25:25;8.38;;;1.20;;
34900;SDS011;21112;51.976;5.660;2022-10-16T10:28:00;7.28;;;1.42;;
34900;SDS011;21112;51.976;5.660;2022-10-16T10:30:33;8.05;;;1.40;;
34900;SDS011;21112;51.976;5.660;2022-10-16T10:33:07;5.18;;;1.10;;
34900;SDS011;21112;51.976;5.660;2022-10-16T10:35:38;5.63;;;1.10;;
34900;SDS011;21112;51.976;5.660;2022-10-16T10:38:11;7.22;;;0.80;;
34900;SDS011;21112;51.976;5.660;2022-10-16T10:40:44;5.80;;;1.13;;
34900;SDS011;21112;51.976;5.660;2022-10-16T10:43:15;9.55;;;1.23;;
34900;SDS011;21112;51.976;5.660;2022-10-16T10:45:46;9.93;;;1.13;;
34900;SDS011;21112;51.976;5.660;2022-10-16T10:50:41;3.67;;;1.00;;
34900;SDS011;21112;51.976;5.660;2022-10-16T10:53:11;4.65;;;0.95;;
34900;SDS011;21112;51.976;5.660;2022-10-16T10:55:44;4.88;;;0.90;;
34900;SDS011;21112;51.976;5.660;2022-10-16T11:00:48;5.13;;;0.98;;
34900;SDS011;21112;51.976;5.660;2022-10-16T11:03:22;5.38;;;1.15;;
34900;SDS011;21112;51.976;5.660;2022-10-16T11:05:51;8.15;;;1.55;;
34900;SDS011;21112;51.976;5.660;2022-10-16T11:08:19;4.63;;;1.10;;
34900;SDS011;21112;51.976;5.660;2022-10-16T11:10:48;9.32;;;1.40;;
34900;SDS011;21112;51.976;5.660;2022-10-16T11:13:19;9.25;;;1.33;;
34900;SDS011;21112;51.976;5.660;2022-10-16T11:15:50;5.38;;;1.02;;
34900;SDS011;21112;51.976;5.660;2022-10-16T11:18:21;7.05;;;1.10;;
34900;SDS011;21112;51.976;5.660;2022-10-16T11:20:49;3.95;;;1.00;;
34900;SDS011;21112;51.976;5.660;2022-10-16T11:23:18;5.53;;;1.00;;
34900;SDS011;21112;51.976;5.660;2022-10-16T11:25:47;12.32;;;1.15;;
34900;SDS011;21112;51.976;5.660;2022-10-16T11:28:16;6.20;;;1.38;;
34900;SDS011;21112;51.976;5.660;2022-10-16T11:30:46;5.03;;;0.93;;
34900;SDS011;21112;51.976;5.660;2022-10-16T11:33:27;5.43;;;1.10;;
34900;SDS011;21112;51.976;5.660;2022-10-16T11:35:59;4.13;;;1.02;;
34900;SDS011;21112;51.976;5.660;2022-10-16T11:38:29;8.60;;;1.23;;
34900;SDS011;21112;51.976;5.660;2022-10-16T11:41:00;6.78;;;1.00;;
34900;SDS011;21112;51.976;5.660;2022-10-16T11:43:29;13.93;;;1.83;;
34900;SDS011;21112;51.976;5.660;2022-10-16T11:46:00;3.05;;;1.35;;
34900;SDS011;21112;51.976;5.660;2022-10-16T11:48:30;5.13;;;1.20;;
34900;SDS011;21112;51.976;5.660;2022-10-16T11:51:00;5.15;;;1.00;;
34900;SDS011;21112;51.976;5.660;2022-10-16T11:53:35;7.03;;;1.17;;
34900;SDS011;21112;51.976;5.660;2022-10-16T11:56:04;5.90;;;1.40;;
34900;SDS011;21112;51.976;5.660;2022-10-16T11:58:31;8.55;;;1.77;;
34900;SDS011;21112;51.976;5.660;2022-10-16T12:01:01;9.05;;;1.17;;
34900;SDS011;21112;51.976;5.660;2022-10-16T12:03:35;3.55;;;1.10;;
34900;SDS011;21112;51.976;5.660;2022-10-16T12:06:06;7.57;;;1.02;;
34900;SDS011;21112;51.976;5.660;2022-10-16T12:08:38;6.45;;;1.30;;
34900;SDS011;21112;51.976;5.660;2022-10-16T12:11:06;13.57;;;1.35;;
34900;SDS011;21112;51.976;5.660;2022-10-16T12:13:34;6.35;;;1.35;;
34900;SDS011;21112;51.976;5.660;2022-10-16T12:16:04;8.63;;;1.33;;
34900;SDS011;21112;51.976;5.660;2022-10-16T12:18:31;5.65;;;0.95;;
34900;SDS011;21112;51.976;5.660;2022-10-16T12:20:59;10.32;;;1.58;;
34900;SDS011;21112;51.976;5.660;2022-10-16T12:23:30;8.75;;;1.20;;
34900;SDS011;21112;51.976;5.660;2022-10-16T12:25:58;6.60;;;1.00;;
34900;SDS011;21112;51.976;5.660;2022-10-16T12:28:26;8.88;;;1.30;;
34900;SDS011;21112;51.976;5.660;2022-10-16T12:30:54;6.05;;;0.90;;
34900;SDS011;21112;51.976;5.660;2022-10-16T12:33:22;7.13;;;1.20;;
34900;SDS011;21112;51.976;5.660;2022-10-16T12:35:49;18.33;;;1.73;;
34900;SDS011;21112;51.976;5.660;2022-10-16T12:38:19;8.15;;;1.15;;
34900;SDS011;21112;51.976;5.660;2022-10-16T12:40:46;4.43;;;0.90;;
34900;SDS011;21112;51.976;5.660;2022-10-16T12:46:33;10.20;;;1.35;;
34900;SDS011;21112;51.976;5.660;2022-10-16T12:49:22;5.38;;;0.98;;
34900;SDS011;21112;51.976;5.660;2022-10-16T12:54:18;5.25;;;1.00;;
34900;SDS011;21112;51.976;5.660;2022-10-16T12:56:48;4.07;;;1.08;;
34900;SDS011;21112;51.976;5.660;2022-10-16T12:59:20;8.05;;;1.05;;
34900;SDS011;21112;51.976;5.660;2022-10-16T13:01:54;7.97;;;1.10;;
34900;SDS011;21112;51.976;5.660;2022-10-16T13:04:31;10.93;;;1.13;;
34900;SDS011;21112;51.976;5.660;2022-10-16T13:09:42;4.13;;;0.82;;
34900;SDS011;21112;51.976;5.660;2022-10-16T13:12:13;12.73;;;2.53;;
34900;SDS011;21112;51.976;5.660;2022-10-16T13:14:55;5.25;;;1.58;;
34900;SDS011;21112;51.976;5.660;2022-10-16T13:17:25;4.47;;;1.27;;
34900;SDS011;21112;51.976;5.660;2022-10-16T13:19:58;4.72;;;1.00;;
34900;SDS011;21112;51.976;5.660;2022-10-16T13:22:30;3.78;;;1.27;;
34900;SDS011;21112;51.976;5.660;2022-10-16T13:25:05;6.90;;;1.00;;
34900;SDS011;21112;51.976;5.660;2022-10-16T13:27:38;6.93;;;1.00;;
34900;SDS011;21112;51.976;5.660;2022-10-16T13:30:10;7.18;;;0.93;;
34900;SDS011;21112;51.976;5.660;2022-10-16T13:32:38;9.60;;;1.00;;
34900;SDS011;21112;51.976;5.660;2022-10-16T13:35:15;5.60;;;1.00;;
34900;SDS011;21112;51.976;5.660;2022-10-16T13:37:44;9.45;;;1.02;;
34900;SDS011;21112;51.976;5.660;2022-10-16T13:40:17;7.03;;;1.05;;
34900;SDS011;21112;51.976;5.660;2022-10-16T13:42:45;10.38;;;1.30;;
34900;SDS011;21112;51.976;5.660;2022-10-16T13:45:17;8.65;;;1.30;;
34900;SDS011;21112;51.976;5.660;2022-10-16T13:47:44;3.45;;;0.90;;
34900;SDS011;21112;51.976;5.660;2022-10-16T13:50:11;7.90;;;1.83;;
34900;SDS011;21112;51.976;5.660;2022-10-16T13:52:38;10.88;;;1.67;;
34900;SDS011;21112;51.976;5.660;2022-10-16T13:55:09;6.43;;;1.65;;
34900;SDS011;21112;51.976;5.660;2022-10-16T13:57:38;9.25;;;1.30;;
34900;SDS011;21112;51.976;5.660;2022-10-16T14:00:19;10.23;;;1.48;;
34900;SDS011;21112;51.976;5.660;2022-10-16T14:02:49;2.20;;;0.75;;
34900;SDS011;21112;51.976;5.660;2022-10-16T14:05:17;5.53;;;1.42;;
34900;SDS011;21112;51.976;5.660;2022-10-16T14:07:47;6.10;;;0.95;;
34900;SDS011;21112;51.976;5.660;2022-10-16T14:10:19;7.88;;;1.23;;
34900;SDS011;21112;51.976;5.660;2022-10-16T14:12:55;10.73;;;1.98;;
34900;SDS011;21112;51.976;5.660;2022-10-16T14:15:22;9.73;;;2.97;;
34900;SDS011;21112;51.976;5.660;2022-10-16T14:17:49;12.77;;;2.25;;
34900;SDS011;21112;51.976;5.660;2022-10-16T14:20:16;7.68;;;2.13;;
34900;SDS011;21112;51.976;5.660;2022-10-16T14:22:43;9.45;;;1.25;;
34900;SDS011;21112;51.976;5.660;2022-10-16T14:25:20;6.97;;;1.48;;
34900;SDS011;21112;51.976;5.660;2022-10-16T14:27:57;9.63;;;1.98;;
34900;SDS011;21112;51.976;5.660;2022-10-16T14:30:24;10.68;;;1.27;;
34900;SDS011;21112;51.976;5.660;2022-10-16T14:32:55;9.60;;;1.30;;
34900;SDS011;21112;51.976;5.660;2022-10-16T14:35:26;5.75;;;1.13;;
34900;SDS011;21112;51.976;5.660;2022-10-16T14:40:25;7.35;;;1.30;;
34900;SDS011;21112;51.976;5.660;2022-10-16T14:45:21;3.63;;;1.10;;
34900;SDS011;21112;51.976;5.660;2022-10-16T14:47:49;5.07;;;1.20;;
34900;SDS011;21112;51.976;5.660;2022-10-16T14:50:16;8.93;;;2.08;;
34900;SDS011;21112;51.976;5.660;2022-10-16T14:52:42;9.43;;;1.42;;
34900;SDS011;21112;51.976;5.660;2022-10-16T14:55:09;4.15;;;1.30;;
34900;SDS011;21112;51.976;5.660;2022-10-16T14:57:36;12.98;;;1.50;;
34900;SDS011;21112;51.976;5.660;2022-10-16T15:00:03;9.38;;;1.33;;
34900;SDS011;21112;51.976;5.660;2022-10-16T15:02:36;7.60;;;1.25;;
34900;SDS011;21112;51.976;5.660;2022-10-16T15:05:07;6.45;;;1.05;;
34900;SDS011;21112;51.976;5.660;2022-10-16T15:07:38;8.30;;;1.23;;
34900;SDS011;21112;51.976;5.660;2022-10-16T15:10:04;3.37;;;0.97;;
34900;SDS011;21112;51.976;5.660;2022-10-16T15:12:31;3.83;;;1.00;;
34900;SDS011;21112;51.976;5.660;2022-10-16T15:14:58;1.02;;;0.68;;
34900;SDS011;21112;51.976;5.660;2022-10-16T15:17:25;4.32;;;1.13;;
34900;SDS011;21112;51.976;5.660;2022-10-16T15:19:53;10.63;;;1.30;;
34900;SDS011;21112;51.976;5.660;2022-10-16T15:22:19;112.68;;;5.05;;
34900;SDS011;21112;51.976;5.660;2022-10-16T15:27:15;306.08;;;130.18;;
34900;SDS011;21112;51.976;5.660;2022-10-16T15:29:42;292.48;;;106.18;;